Terminal Aerodrome Forecast
Issued by NWS

Home | Current Version | Previous Version | Text Only | Print | Product List | Glossary On
Versions: 1 2 3 4 5 6 7 8 9 10 11 12 13
496
FTUS42 TJSJ 292343
TAFISX
TAF
TISX 292343Z 3000/3024 VRB05KT P6SM VCSH SCT025
     FM301300 04011KT P6SM VCSH FEW025 SCT035
     FM302300 03006KT P6SM FEW025=

USA.gov is the U.S. government's official web portal to all federal, state and local government web resources and services.